This is the latest recevied weather packets stored in our database for station/object OE7BJT-13. If no packets are shown the sender has not sent any weather packets the latest 10 day(s).
| Time | Temp. | Humidity | Pressure | Rain* | Wind** | Luminosity | Snow |
|---|---|---|---|---|---|---|---|
| 1778096261 | 12.78° C | 90% | 1009 hPa | - | - | - | - |
| 1778095656 | 13.33° C | 89% | 1009 hPa | - | - | - | - |
| 1778095050 | 13.33° C | 88% | 1009 hPa | - | - | - | - |
| 1778094445 | 13.89° C | 90% | 1009 hPa | - | - | - | - |
| 1778090206 | 17.78° C | 58% | 1007 hPa | - | - | - | - |
| 1778089600 | 16.67° C | 68% | 1007 hPa | - | - | - | - |
| 1778088994 | 18.89° C | 48% | 1006 hPa | - | - | - | - |
| 1778087783 | 18.33° C | 47% | 1006 hPa | - | - | - | - |
| 1778087178 | 18.89° C | 40% | 1005 hPa | - | - | - | - |
| 1778086572 | 18.89° C | 39% | 1005 hPa | - | - | - | - |
| 1778085966 | 18.89° C | 39% | 1005 hPa | - | - | - | - |
| 1778085361 | 19.44° C | 38% | 1005 hPa | - | - | - | - |
| 1778084755 | 20° C | 38% | 1005 hPa | - | - | - | - |
| 1778084150 | 20° C | 38% | 1005 hPa | - | - | - | - |
| 1778083544 | 19.44° C | 37% | 1005 hPa | - | - | - | - |
| 1778082938 | 20° C | 37% | 1005 hPa | - | - | - | - |
| 1778082333 | 20.56° C | 38% | 1004 hPa | - | - | - | - |
| 1778081727 | 21.11° C | 38% | 1004 hPa | - | - | - | - |
| 1778081122 | 21.11° C | 36% | 1004 hPa | - | - | - | - |
| 1778080516 | 21.67° C | 35% | 1004 hPa | - | - | - | - |
| 1778079305 | 21.67° C | 40% | 1004 hPa | - | - | - | - |
| 1778078699 | 21.67° C | 40% | 1004 hPa | - | - | - | - |
| 1778078094 | 22.22° C | 39% | 1004 hPa | - | - | - | - |
| 1778077488 | 22.22° C | 35% | 1004 hPa | - | - | - | - |
| 1778076882 | 22.22° C | 32% | 1004 hPa | - | - | - | - |
* Rain since midnight (hover to see other rain measurements)
** Current wind speed in m/s (hover to see current wind gust speed)